Details for AeroLogic at EDDP




Go Back


Latest METAR
Local Time

EDDP 220850Z 26021KT 9999 FEW033 BKN280 14/06 Q1020 TEMPO 25020G30KT
22/09/2018, 10:58:58

Description
Results
AeroLogic Logo
Number of Pilots based at EDDP
0 Pilots Based here
Number of AeroLogic Flights Departed from EDDP
0 Flights Departed
Number of AeroLogic Flights Arrived at EDDP
0 Flights Arrived
Number of AeroLogic Schedules Departing from EDDP
42 Schedules
Number of AeroLogic Schedules Arriving at EDDP
45 Schedules
Number of AeroLogic Schedules Departing from EDDP availible today
4 Schedules Today
Number of AeroLogic Schedules Arriving at EDDP availible today
3 Schedules Today
Average Landing Rate at EDDP
0 fpm
AeroLogic Average Landing Rate at EDDP
0 fpm
Total Fuel Purchased at EDDP by AeroLogic
0.00 kgs / 0.00 lbs

Pilots Based at EDDP


Pilot ID
Pilot Name
Pilot Rank
No. of Flights
No. of Flying Hours
There are no pilots assigned to this hub!   Will you be the first?
Content